createdAt,value
2023-01-08T00:00:07.597Z,79.0
2023-01-08T00:01:07.597Z,78.7
2023-01-08T00:02:07.619Z,78.6
2023-01-08T00:03:07.936Z,79.2
2023-01-08T00:04:07.949Z,79.9
2023-01-08T00:05:07.646Z,80.3
2023-01-08T00:06:07.685Z,79.9
2023-01-08T00:07:07.689Z,80.2
2023-01-08T00:08:07.703Z,79.6
2023-01-08T00:09:07.707Z,79.5
2023-01-08T00:10:07.721Z,79.0
2023-01-08T00:11:07.821Z,79.6
2023-01-08T00:12:07.755Z,79.9
2023-01-08T00:13:07.787Z,79.5
2023-01-08T00:14:07.786Z,80.1
2023-01-08T00:15:07.793Z,80.4
2023-01-08T00:16:08.030Z,80.0
2023-01-08T00:17:07.790Z,79.8
2023-01-08T00:18:07.812Z,79.5
2023-01-08T00:19:07.827Z,79.2
2023-01-08T00:20:07.835Z,78.7
2023-01-08T00:21:07.863Z,79.4
2023-01-08T00:22:07.891Z,79.0
2023-01-08T00:23:07.863Z,80.3
2023-01-08T00:24:07.886Z,79.8
2023-01-08T00:25:07.905Z,79.8
2023-01-08T00:26:07.917Z,79.6
2023-01-08T00:27:07.943Z,79.5
2023-01-08T00:28:07.925Z,79.3
2023-01-08T00:29:07.954Z,79.9
2023-01-08T00:30:07.960Z,79.4
2023-01-08T00:31:08.444Z,79.1
2023-01-08T00:32:07.955Z,78.6
2023-01-08T00:33:07.975Z,79.1
2023-01-08T00:34:07.993Z,78.7
2023-01-08T00:35:08.014Z,79.1
2023-01-08T00:36:08.022Z,79.3
2023-01-08T00:37:08.071Z,79.5
2023-01-08T00:38:08.078Z,80.3
2023-01-08T00:39:08.104Z,79.7
2023-01-08T00:40:08.084Z,79.5
2023-01-08T00:41:08.088Z,78.9
2023-01-08T00:42:08.090Z,79.0
2023-01-08T00:43:08.136Z,79.8
2023-01-08T00:44:08.118Z,80.3
2023-01-08T00:45:08.135Z,78.9
2023-01-08T00:46:08.497Z,79.5
2023-01-08T00:47:08.172Z,79.5
2023-01-08T00:48:08.187Z,79.7
2023-01-08T00:49:08.224Z,79.8
2023-01-08T00:50:08.227Z,80.1
2023-01-08T00:51:08.275Z,79.7
2023-01-08T00:52:08.263Z,79.8
2023-01-08T00:53:08.250Z,79.8
2023-01-08T00:54:08.241Z,79.9
2023-01-08T00:55:08.265Z,79.9
2023-01-08T00:56:08.343Z,79.9
2023-01-08T00:57:08.307Z,79.8
2023-01-08T00:58:08.304Z,80.2
2023-01-08T00:59:08.307Z,80.5
2023-01-08T01:00:08.317Z,80.7
2023-01-08T01:01:08.683Z,79.9
2023-01-08T01:02:09.017Z,79.8
2023-01-08T01:03:08.342Z,79.7
2023-01-08T01:04:08.581Z,79.7
2023-01-08T01:05:08.353Z,79.8
2023-01-08T01:06:08.421Z,79.8
2023-01-08T01:07:08.413Z,79.9
2023-01-08T01:08:08.409Z,79.8
2023-01-08T01:09:08.431Z,79.9
2023-01-08T01:10:08.434Z,80.0
2023-01-08T01:11:08.452Z,80.2
2023-01-08T01:12:08.453Z,80.5
2023-01-08T01:13:08.517Z,80.9
2023-01-08T01:14:08.483Z,80.5
2023-01-08T01:15:08.536Z,80.7
2023-01-08T01:16:08.522Z,80.9
2023-01-08T01:17:08.537Z,81.0
2023-01-08T01:18:08.538Z,81.1
2023-01-08T01:19:08.608Z,80.0
2023-01-08T01:20:08.575Z,80.2
2023-01-08T01:21:08.589Z,81.0
2023-01-08T01:22:08.595Z,80.9
2023-01-08T01:23:08.609Z,80.9
2023-01-08T01:24:08.617Z,81.2
2023-01-08T01:25:08.648Z,80.9
2023-01-08T01:26:08.662Z,80.5
2023-01-08T01:27:08.675Z,80.9
2023-01-08T01:28:08.688Z,80.8
2023-01-08T01:29:08.700Z,81.1
2023-01-08T01:30:08.828Z,80.9
2023-01-08T01:31:09.000Z,81.3
2023-01-08T01:32:08.735Z,80.8
2023-01-08T01:33:08.766Z,80.4
2023-01-08T01:34:08.759Z,80.7
2023-01-08T01:35:08.759Z,80.1
2023-01-08T01:36:08.775Z,80.0
2023-01-08T01:37:08.791Z,80.5
2023-01-08T01:38:08.821Z,80.1
2023-01-08T01:39:08.823Z,80.3
2023-01-08T01:40:08.841Z,80.3
2023-01-08T01:41:08.846Z,80.8
2023-01-08T01:42:08.871Z,80.3
2023-01-08T01:43:08.884Z,79.8
2023-01-08T01:44:08.875Z,80.3
2023-01-08T02:02:10.019Z,80.2
2023-01-08T02:03:09.108Z,80.2
2023-01-08T02:04:09.374Z,79.7
2023-01-08T02:05:09.135Z,79.9
2023-01-08T02:06:09.159Z,79.6
2023-01-08T02:07:09.170Z,79.9
2023-01-08T02:08:09.197Z,80.2
2023-01-08T02:09:09.171Z,80.1
2023-01-08T02:10:09.213Z,80.6
2023-01-08T02:11:09.225Z,80.4
2023-01-08T02:12:09.213Z,79.8
2023-01-08T02:13:09.258Z,80.0
2023-01-08T02:14:09.246Z,80.1
2023-01-08T02:15:09.282Z,80.7
2023-01-08T02:16:09.351Z,80.8
2023-01-08T02:17:09.301Z,80.9
2023-01-08T02:18:09.300Z,80.6
2023-01-08T02:19:09.338Z,80.2
2023-01-08T02:20:09.330Z,80.4
2023-01-08T02:21:09.337Z,80.6
2023-01-08T02:22:09.356Z,79.7
2023-01-08T02:23:09.378Z,79.6
2023-01-08T02:24:09.403Z,79.5
2023-01-08T02:25:09.412Z,79.8
2023-01-08T02:26:09.405Z,80.2
2023-01-08T02:27:09.451Z,80.1
2023-01-08T02:28:09.446Z,79.6
2023-01-08T02:29:09.438Z,79.6
2023-01-08T02:30:09.451Z,79.4
2023-01-08T02:31:09.747Z,80.4
2023-01-08T02:32:09.493Z,80.3
2023-01-08T02:33:09.552Z,80.2
2023-01-08T02:34:09.484Z,80.4
2023-01-08T02:35:09.503Z,80.1
2023-01-08T02:36:09.494Z,81.1
2023-01-08T02:37:09.501Z,80.5
2023-01-08T02:38:09.506Z,80.4
2023-01-08T02:39:09.529Z,80.6
2023-01-08T02:40:09.533Z,80.9
2023-01-08T02:41:09.542Z,81.2
2023-01-08T02:42:09.556Z,80.2
2023-01-08T02:43:09.564Z,80.6
2023-01-08T02:44:09.565Z,80.7
2023-01-08T02:45:09.589Z,80.8
2023-01-08T02:46:09.995Z,80.8
2023-01-08T02:47:09.590Z,80.8
2023-01-08T02:48:09.608Z,80.9
2023-01-08T02:49:09.627Z,80.8
2023-01-08T02:50:09.630Z,81.0
2023-01-08T02:51:09.616Z,81.4
2023-01-08T02:52:09.620Z,81.8
2023-01-08T02:53:09.634Z,81.9
2023-01-08T02:54:09.626Z,81.7
2023-01-08T02:55:09.649Z,81.5
2023-01-08T02:56:09.635Z,81.9
2023-01-08T02:57:09.653Z,82.1
2023-01-08T02:58:09.671Z,81.5
2023-01-08T02:59:09.657Z,81.6
2023-01-08T03:00:09.691Z,81.7
2023-01-08T03:01:10.149Z,82.1
2023-01-08T03:02:10.202Z,82.2
2023-01-08T03:03:09.709Z,82.4
2023-01-08T03:04:09.961Z,82.0
2023-01-08T03:05:09.722Z,81.9
2023-01-08T03:06:09.711Z,82.3
2023-01-08T03:07:09.734Z,81.7
2023-01-08T03:08:09.737Z,81.8
2023-01-08T03:09:09.742Z,82.0
2023-01-08T03:10:09.782Z,82.1
2023-01-08T03:11:09.764Z,82.2
2023-01-08T03:12:09.787Z,82.0
2023-01-08T03:13:09.784Z,82.3
2023-01-08T03:14:09.823Z,82.3
2023-01-08T03:15:09.859Z,82.0
2023-01-08T03:16:09.810Z,82.1
2023-01-08T03:17:09.823Z,81.8
2023-01-08T03:18:09.831Z,81.8
2023-01-08T03:19:09.863Z,81.8
2023-01-08T03:20:09.901Z,81.9
2023-01-08T03:21:09.840Z,82.1
2023-01-08T03:22:09.866Z,81.5
2023-01-08T03:23:09.861Z,81.5
2023-01-08T03:24:09.888Z,81.3
2023-01-08T03:25:09.888Z,80.9
2023-01-08T03:26:09.886Z,80.9
2023-01-08T03:27:10.005Z,81.0
2023-01-08T03:28:09.906Z,81.6
2023-01-08T03:29:09.902Z,81.4
2023-01-08T03:30:09.925Z,81.6
2023-01-08T03:31:10.164Z,81.6
2023-01-08T03:32:09.930Z,81.2
2023-01-08T03:33:09.931Z,81.2
2023-01-08T03:34:09.941Z,81.2
2023-01-08T03:35:09.955Z,81.5
2023-01-08T03:36:09.952Z,81.6
2023-01-08T03:37:09.947Z,81.7
2023-01-08T03:38:09.971Z,81.6
2023-01-08T03:39:09.961Z,81.4
2023-01-08T03:40:09.974Z,81.7
2023-01-08T03:41:09.975Z,81.8
2023-01-08T03:42:09.980Z,81.8
2023-01-08T03:43:10.002Z,82.0
2023-01-08T03:44:10.033Z,82.3
2023-01-08T03:45:10.007Z,82.5
2023-01-08T03:46:10.285Z,82.6
2023-01-08T03:47:10.030Z,82.8
2023-01-08T03:48:10.030Z,82.9
2023-01-08T03:49:10.062Z,83.1
2023-01-08T03:50:10.062Z,83.2
2023-01-08T03:51:10.104Z,83.4
2023-01-08T03:52:10.052Z,83.6
2023-01-08T03:53:10.061Z,83.7
2023-01-08T03:54:10.057Z,83.9
2023-01-08T03:55:10.076Z,84.1
2023-01-08T03:56:10.077Z,84.3
2023-01-08T03:57:10.090Z,84.4
2023-01-08T03:58:10.096Z,84.4
2023-01-08T03:59:10.107Z,84.3
2023-01-08T04:00:10.112Z,84.3
2023-01-08T04:01:10.613Z,84.5
2023-01-08T04:02:10.734Z,84.5
2023-01-08T04:03:10.172Z,84.3
2023-01-08T04:04:10.309Z,84.3
2023-01-08T04:05:10.172Z,84.3
2023-01-08T04:06:10.173Z,84.1
2023-01-08T04:07:10.166Z,84.1
2023-01-08T04:08:10.178Z,84.1
2023-01-08T04:09:10.195Z,84.1
2023-01-08T04:10:10.233Z,83.9
2023-01-08T04:11:10.201Z,83.9
2023-01-08T04:12:10.231Z,83.5
2023-01-08T04:13:10.220Z,83.5
2023-01-08T04:14:10.218Z,83.3
2023-01-08T04:15:10.227Z,83.2
2023-01-08T04:16:10.495Z,82.9
2023-01-08T04:17:10.245Z,82.9
2023-01-08T04:18:10.247Z,82.8
2023-01-08T04:19:10.240Z,82.8
2023-01-08T04:20:10.252Z,82.8
2023-01-08T04:21:10.274Z,82.4
2023-01-08T04:22:10.259Z,82.2
2023-01-08T04:23:10.279Z,82.3
2023-01-08T04:24:10.280Z,82.1
2023-01-08T04:25:10.288Z,82.0
2023-01-08T04:26:10.300Z,81.7
2023-01-08T04:27:10.308Z,81.9
2023-01-08T04:28:10.329Z,81.8
2023-01-08T04:29:10.321Z,81.9
2023-01-08T04:30:10.321Z,81.9
2023-01-08T04:31:10.880Z,81.9
2023-01-08T04:32:10.342Z,81.7
2023-01-08T04:33:10.335Z,81.4
2023-01-08T04:34:10.350Z,81.4
2023-01-08T04:35:10.380Z,81.6
2023-01-08T04:36:10.407Z,81.3
2023-01-08T04:37:10.382Z,81.5
2023-01-08T04:38:11.866Z,81.4
2023-01-08T04:39:10.394Z,81.6
2023-01-08T04:40:10.384Z,81.3
2023-01-08T04:41:10.396Z,81.5
2023-01-08T04:42:10.418Z,81.1
2023-01-08T04:43:10.398Z,81.0
2023-01-08T04:44:10.422Z,81.3
2023-01-08T04:45:10.424Z,81.5
2023-01-08T04:46:10.629Z,81.5
2023-01-08T04:47:10.433Z,81.3
2023-01-08T04:48:10.451Z,81.3
2023-01-08T04:49:10.469Z,81.3
2023-01-08T04:50:10.513Z,81.2
2023-01-08T04:51:10.475Z,81.3
2023-01-08T04:52:10.460Z,81.3
2023-01-08T04:53:10.693Z,81.1
2023-01-08T04:54:10.503Z,80.5
2023-01-08T04:55:10.486Z,80.8
2023-01-08T04:56:10.558Z,80.6
2023-01-08T04:57:10.511Z,80.8
2023-01-08T04:58:10.488Z,80.8
2023-01-08T04:59:10.515Z,80.8
2023-01-08T05:00:10.515Z,80.4
2023-01-08T05:01:10.921Z,80.5
2023-01-08T05:02:11.237Z,80.6
2023-01-08T05:03:10.770Z,80.5
2023-01-08T05:04:10.535Z,80.4
2023-01-08T05:05:10.541Z,80.5
2023-01-08T05:06:10.558Z,80.5
2023-01-08T05:07:10.556Z,80.7
2023-01-08T05:08:10.579Z,80.7
2023-01-08T05:09:10.569Z,80.7
2023-01-08T05:10:10.577Z,80.8
2023-01-08T05:11:10.590Z,80.8
2023-01-08T05:12:10.577Z,81.0
2023-01-08T05:13:10.591Z,81.0
2023-01-08T05:14:10.592Z,81.0
2023-01-08T05:15:10.611Z,80.9
2023-01-08T05:16:10.949Z,80.9
2023-01-08T05:17:10.621Z,80.9
2023-01-08T05:18:10.626Z,81.0
2023-01-08T05:19:10.688Z,81.0
2023-01-08T05:20:10.638Z,81.1
2023-01-08T05:21:10.639Z,80.9
2023-01-08T05:22:10.642Z,80.9
2023-01-08T05:23:10.652Z,81.0
2023-01-08T05:24:10.676Z,81.1
2023-01-08T05:25:10.664Z,81.2
2023-01-08T05:26:10.702Z,81.2
2023-01-08T05:27:10.686Z,81.2
2023-01-08T05:28:10.689Z,81.2
2023-01-08T05:29:10.692Z,81.2
2023-01-08T05:30:10.731Z,81.4
2023-01-08T05:31:10.825Z,81.5
2023-01-08T05:32:10.713Z,81.6
2023-01-08T05:33:10.730Z,81.6
2023-01-08T05:34:10.724Z,81.6
2023-01-08T05:35:10.746Z,81.6
2023-01-08T05:36:10.769Z,81.7
2023-01-08T05:37:10.738Z,81.7
2023-01-08T05:38:10.745Z,81.7
2023-01-08T05:39:10.746Z,81.7
2023-01-08T05:40:10.753Z,81.8
2023-01-08T05:41:10.815Z,81.9
2023-01-08T05:42:10.786Z,81.8
2023-01-08T05:43:10.785Z,81.9
2023-01-08T05:44:10.790Z,82.0
2023-01-08T05:45:10.817Z,82.0
2023-01-08T05:46:10.931Z,81.9
2023-01-08T05:47:10.819Z,81.8
2023-01-08T05:48:10.809Z,81.8
2023-01-08T05:49:10.823Z,81.7
2023-01-08T05:50:10.818Z,81.8
2023-01-08T05:51:10.876Z,81.9
2023-01-08T05:52:10.837Z,81.9
2023-01-08T05:53:10.853Z,82.0
2023-01-08T05:54:10.871Z,82.0
2023-01-08T05:55:10.857Z,82.0
2023-01-08T05:56:10.913Z,82.1
2023-01-08T05:57:10.871Z,82.0
2023-01-08T05:58:10.872Z,82.0
2023-01-08T05:59:10.882Z,82.0
2023-01-08T06:00:10.905Z,82.0
2023-01-08T06:01:11.204Z,82.1
2023-01-08T06:02:10.919Z,82.2
2023-01-08T06:03:11.139Z,82.1
2023-01-08T06:04:11.240Z,82.1
2023-01-08T06:05:10.938Z,82.2
2023-01-08T06:06:10.956Z,82.2
2023-01-08T06:07:11.339Z,82.1
2023-01-08T06:08:10.977Z,82.1
2023-01-08T06:09:10.995Z,82.0
2023-01-08T06:10:10.970Z,82.0
2023-01-08T06:11:10.996Z,82.0
2023-01-08T06:12:11.005Z,81.9
2023-01-08T06:13:11.017Z,81.9
2023-01-08T06:14:11.008Z,81.9
2023-01-08T06:15:11.049Z,82.0
2023-01-08T06:16:11.343Z,82.0
2023-01-08T06:17:11.046Z,81.9
2023-01-08T06:18:11.045Z,81.9
2023-01-08T06:19:11.049Z,82.0
2023-01-08T06:20:11.050Z,82.1
2023-01-08T06:21:11.049Z,82.1
2023-01-08T06:22:11.054Z,82.0
2023-01-08T06:23:11.063Z,82.1
2023-01-08T06:24:11.074Z,82.0
2023-01-08T06:25:11.148Z,82.0
2023-01-08T06:26:11.088Z,82.0
2023-01-08T06:27:11.096Z,82.1
2023-01-08T06:28:11.109Z,82.1
2023-01-08T06:29:11.113Z,82.0
2023-01-08T06:30:11.126Z,82.1
2023-01-08T06:31:11.374Z,82.1
2023-01-08T06:32:11.169Z,82.2
2023-01-08T06:33:11.139Z,82.3
2023-01-08T06:34:11.147Z,82.3
2023-01-08T06:35:11.156Z,82.4
2023-01-08T06:36:11.170Z,82.4
2023-01-08T06:37:11.154Z,82.4
2023-01-08T06:38:11.172Z,82.5
2023-01-08T06:39:11.183Z,82.5
2023-01-08T06:40:11.206Z,82.5
2023-01-08T06:41:11.252Z,82.5
2023-01-08T06:42:11.184Z,82.5
2023-01-08T06:43:11.199Z,82.5
2023-01-08T06:44:11.209Z,82.5
2023-01-08T06:45:11.201Z,82.6
2023-01-08T06:46:11.482Z,82.5
2023-01-08T06:47:11.225Z,82.5
2023-01-08T06:48:11.259Z,82.5
2023-01-08T06:49:11.268Z,82.4
2023-01-08T06:50:11.240Z,82.4
2023-01-08T06:51:11.267Z,82.4
2023-01-08T06:52:11.254Z,82.4
2023-01-08T06:53:11.267Z,82.4
2023-01-08T06:54:13.930Z,82.3
2023-01-08T06:55:11.303Z,82.2
2023-01-08T06:56:11.345Z,82.3
2023-01-08T06:57:11.304Z,82.2
2023-01-08T06:58:11.296Z,82.2
2023-01-08T06:59:11.455Z,82.2
2023-01-08T07:00:11.310Z,82.1
2023-01-08T07:01:11.744Z,82.2
2023-01-08T07:02:12.004Z,82.3
2023-01-08T07:03:11.560Z,82.4
2023-01-08T07:04:11.356Z,82.1
2023-01-08T07:05:11.362Z,82.1
2023-01-08T07:06:11.353Z,82.1
2023-01-08T07:07:11.523Z,82.0
2023-01-08T07:08:11.364Z,82.1
2023-01-08T07:09:11.373Z,82.2
2023-01-08T07:10:11.393Z,82.2
2023-01-08T07:11:11.391Z,82.1
2023-01-08T07:12:11.399Z,82.0
2023-01-08T07:13:11.414Z,82.0
2023-01-08T07:14:11.470Z,82.0
2023-01-08T07:15:11.414Z,82.1
2023-01-08T07:16:12.162Z,82.1
2023-01-08T07:17:11.453Z,82.1
2023-01-08T07:18:11.431Z,82.1
2023-01-08T07:19:11.442Z,82.1
2023-01-08T07:20:11.493Z,82.2
2023-01-08T07:21:11.450Z,82.3
2023-01-08T07:22:11.467Z,82.3
2023-01-08T07:23:11.495Z,82.4
2023-01-08T07:24:11.491Z,82.4
2023-01-08T07:25:11.688Z,82.4
2023-01-08T07:26:11.540Z,82.3
2023-01-08T07:27:11.518Z,82.3
2023-01-08T07:28:11.515Z,82.3
2023-01-08T07:29:11.506Z,82.3
2023-01-08T07:30:30.812Z,82.4
2023-01-08T07:31:11.872Z,82.4
2023-01-08T07:32:11.538Z,82.4
2023-01-08T07:33:11.548Z,82.4
2023-01-08T07:34:11.580Z,82.5
2023-01-08T07:35:11.561Z,82.4
2023-01-08T07:36:11.568Z,82.4
2023-01-08T07:37:11.581Z,82.4
2023-01-08T07:38:11.575Z,82.4
2023-01-08T07:39:11.605Z,82.3
2023-01-08T07:40:11.596Z,82.2
2023-01-08T07:41:11.593Z,82.3
2023-01-08T07:42:11.631Z,82.4
2023-01-08T07:43:11.610Z,82.3
2023-01-08T07:44:11.612Z,82.3
2023-01-08T07:45:11.663Z,82.3
2023-01-08T07:46:11.788Z,82.1
2023-01-08T07:47:11.651Z,82.1
2023-01-08T07:48:11.643Z,82.2
2023-01-08T07:49:11.651Z,82.1
2023-01-08T07:50:11.665Z,82.0
2023-01-08T07:51:11.667Z,82.0
2023-01-08T07:52:11.665Z,82.0
2023-01-08T07:53:11.679Z,82.0
2023-01-08T07:54:11.722Z,82.0
2023-01-08T07:55:11.723Z,81.9
2023-01-08T07:56:11.719Z,82.0
2023-01-08T07:57:11.704Z,81.9
2023-01-08T07:58:11.767Z,81.8
2023-01-08T07:59:11.767Z,81.7
2023-01-08T08:00:11.739Z,81.7
2023-01-08T08:01:11.913Z,81.8
2023-01-08T08:02:12.489Z,81.9
2023-01-08T08:03:12.294Z,81.9
2023-01-08T08:04:11.800Z,81.9
2023-01-08T08:05:11.772Z,82.0
2023-01-08T08:06:11.791Z,81.9
2023-01-08T08:07:11.785Z,82.0
2023-01-08T08:08:11.808Z,81.9
2023-01-08T08:09:11.823Z,81.9
2023-01-08T08:10:11.827Z,81.9
2023-01-08T08:11:12.190Z,82.0
2023-01-08T08:12:11.830Z,82.0
2023-01-08T08:13:11.838Z,82.1
2023-01-08T08:14:11.844Z,82.1
2023-01-08T08:15:11.871Z,82.1
2023-01-08T08:16:11.980Z,82.1
2023-01-08T08:17:11.887Z,82.2
2023-01-08T08:18:11.874Z,82.3
2023-01-08T08:19:11.875Z,82.3
2023-01-08T08:20:11.876Z,82.2
2023-01-08T08:21:11.896Z,82.2
2023-01-08T08:22:11.903Z,82.1
2023-01-08T08:23:11.906Z,82.2
2023-01-08T08:24:11.924Z,82.4
2023-01-08T08:25:11.947Z,82.5
2023-01-08T08:26:11.925Z,82.8
2023-01-08T08:27:11.937Z,82.4
2023-01-08T08:28:11.950Z,82.1
2023-01-08T08:29:11.953Z,82.3
2023-01-08T08:30:11.960Z,82.5
2023-01-08T08:31:12.133Z,82.5
2023-01-08T08:32:11.985Z,82.6
2023-01-08T08:33:11.975Z,82.6
2023-01-08T08:34:11.991Z,82.7
2023-01-08T08:35:11.976Z,82.5
2023-01-08T08:36:12.022Z,82.6
2023-01-08T08:37:12.005Z,82.6
2023-01-08T08:38:12.004Z,82.6
2023-01-08T08:39:12.012Z,82.7
2023-01-08T08:40:12.033Z,82.7
2023-01-08T08:41:12.040Z,82.8
2023-01-08T08:42:12.059Z,83.0
2023-01-08T08:43:12.087Z,83.0
2023-01-08T08:44:12.047Z,83.1
2023-01-08T08:45:12.059Z,83.1
2023-01-08T08:46:12.232Z,83.1
2023-01-08T08:47:12.081Z,83.1
2023-01-08T08:48:12.097Z,83.0
2023-01-08T08:49:12.103Z,83.0
2023-01-08T08:50:12.121Z,83.1
2023-01-08T08:51:12.110Z,83.1
2023-01-08T08:52:12.116Z,83.1
2023-01-08T08:53:12.131Z,83.1
2023-01-08T08:54:12.119Z,82.8
2023-01-08T08:55:12.148Z,82.7
2023-01-08T08:56:12.150Z,82.7
2023-01-08T08:57:12.172Z,82.7
2023-01-08T08:58:12.188Z,82.8
2023-01-08T08:59:12.185Z,82.9
2023-01-08T09:00:12.161Z,82.9
2023-01-08T09:01:12.287Z,83.0
2023-01-08T09:02:12.868Z,83.0
2023-01-08T09:03:12.436Z,83.0
2023-01-08T09:04:12.202Z,83.0
2023-01-08T09:05:12.198Z,82.9
2023-01-08T09:06:12.210Z,82.9
2023-01-08T09:07:12.217Z,83.0
2023-01-08T09:08:12.235Z,82.9
2023-01-08T09:09:12.242Z,83.0
2023-01-08T09:10:12.238Z,82.9
2023-01-08T09:11:14.820Z,83.0
2023-01-08T09:12:12.275Z,83.0
2023-01-08T09:13:12.297Z,83.1
2023-01-08T09:14:12.271Z,83.2
2023-01-08T09:15:12.276Z,83.2
2023-01-08T09:16:12.563Z,83.2
2023-01-08T09:17:12.305Z,83.1
2023-01-08T09:18:14.683Z,83.1
2023-01-08T09:19:12.306Z,83.1
2023-01-08T09:20:12.323Z,83.0
2023-01-08T09:21:12.313Z,83.1
2023-01-08T09:22:12.323Z,83.0
2023-01-08T09:23:12.356Z,83.1
2023-01-08T09:24:12.355Z,82.9
2023-01-08T09:25:12.339Z,82.9
2023-01-08T09:26:12.354Z,83.0
2023-01-08T09:27:12.376Z,83.1
2023-01-08T09:28:12.468Z,83.1
2023-01-08T09:29:12.380Z,83.0
2023-01-08T09:30:12.377Z,83.0
2023-01-08T09:31:12.680Z,83.0
2023-01-08T09:32:12.410Z,83.0
2023-01-08T09:33:12.404Z,83.0
2023-01-08T09:34:12.411Z,83.1
2023-01-08T09:35:12.433Z,83.0
2023-01-08T09:36:12.420Z,83.1
2023-01-08T09:37:12.442Z,83.1
2023-01-08T09:38:12.445Z,83.1
2023-01-08T09:39:12.459Z,83.1
2023-01-08T09:40:12.465Z,83.0
2023-01-08T09:41:12.456Z,83.0
2023-01-08T09:42:12.475Z,83.1
2023-01-08T09:43:12.481Z,83.1
2023-01-08T09:44:12.487Z,83.0
2023-01-08T09:45:12.498Z,83.1
2023-01-08T09:46:12.505Z,82.9
2023-01-08T09:47:12.520Z,82.9
2023-01-08T09:48:12.608Z,83.0
2023-01-08T09:49:12.553Z,83.0
2023-01-08T09:50:12.543Z,83.1
2023-01-08T09:51:12.529Z,82.9
2023-01-08T09:52:12.560Z,82.8
2023-01-08T09:53:12.550Z,82.8
2023-01-08T09:54:12.562Z,82.7
2023-01-08T09:55:12.604Z,82.6
2023-01-08T09:56:12.589Z,82.6
2023-01-08T09:57:12.583Z,82.5
2023-01-08T09:58:12.604Z,82.6
2023-01-08T09:59:12.614Z,82.6
2023-01-08T10:00:12.617Z,82.6
2023-01-08T10:01:13.140Z,82.6
2023-01-08T10:02:13.026Z,82.5
2023-01-08T10:03:12.618Z,82.4
2023-01-08T10:04:12.644Z,82.3
2023-01-08T10:05:12.672Z,82.3
2023-01-08T10:06:12.663Z,82.2
2023-01-08T10:07:12.667Z,82.2
2023-01-08T10:08:12.685Z,82.0
2023-01-08T10:09:12.703Z,82.0
2023-01-08T10:10:12.697Z,82.0
2023-01-08T10:11:12.698Z,81.9
2023-01-08T10:12:12.733Z,81.7
2023-01-08T10:13:12.738Z,81.6
2023-01-08T10:14:12.743Z,81.5
2023-01-08T10:15:12.742Z,81.6
2023-01-08T10:16:12.879Z,81.6
2023-01-08T10:17:12.814Z,81.5
2023-01-08T10:18:12.792Z,81.4
2023-01-08T10:19:12.768Z,81.3
2023-01-08T10:20:12.796Z,81.3
2023-01-08T10:21:12.780Z,81.4
2023-01-08T10:22:12.791Z,81.2
2023-01-08T10:23:12.800Z,81.2
2023-01-08T10:24:12.814Z,81.2
2023-01-08T10:25:12.838Z,81.1
2023-01-08T10:26:12.832Z,81.2
2023-01-08T10:27:12.849Z,81.2
2023-01-08T10:28:12.851Z,81.0
2023-01-08T10:29:12.920Z,80.6
2023-01-08T10:30:12.863Z,80.6
2023-01-08T10:31:12.912Z,80.7
2023-01-08T10:32:12.902Z,80.5
2023-01-08T10:33:12.907Z,80.7
2023-01-08T10:34:12.915Z,80.5
2023-01-08T10:35:12.950Z,80.6
2023-01-08T10:36:12.922Z,80.4
2023-01-08T10:37:12.930Z,80.4
2023-01-08T10:38:12.939Z,80.3
2023-01-08T10:39:12.972Z,80.0
2023-01-08T10:40:12.954Z,79.9
2023-01-08T10:41:13.012Z,79.9
2023-01-08T10:42:12.970Z,80.1
2023-01-08T10:43:13.004Z,79.9
2023-01-08T10:44:12.991Z,79.8
2023-01-08T10:45:12.992Z,79.9
2023-01-08T10:46:13.180Z,79.5
2023-01-08T10:47:13.036Z,79.5
2023-01-08T10:48:13.012Z,79.5
2023-01-08T10:49:13.020Z,79.6
2023-01-08T10:50:13.030Z,79.7
2023-01-08T10:51:13.063Z,79.5
2023-01-08T10:52:13.050Z,79.6
2023-01-08T10:53:13.051Z,79.5
2023-01-08T10:54:13.069Z,79.6
2023-01-08T10:55:13.071Z,79.6
2023-01-08T10:56:13.077Z,79.6
2023-01-08T10:57:13.093Z,79.3
2023-01-08T10:58:13.100Z,79.2
2023-01-08T10:59:13.164Z,79.3
2023-01-08T11:00:13.114Z,79.1
2023-01-08T11:01:13.644Z,79.2
2023-01-08T11:02:13.482Z,79.2
2023-01-08T11:03:13.157Z,79.2
2023-01-08T11:04:13.153Z,79.3
2023-01-08T11:05:13.184Z,79.2
2023-01-08T11:06:13.172Z,79.2
2023-01-08T11:07:13.184Z,79.4
2023-01-08T11:08:13.225Z,79.3
2023-01-08T11:09:13.202Z,79.3
2023-01-08T11:10:13.222Z,79.3
2023-01-08T11:11:13.236Z,79.6
2023-01-08T11:12:13.230Z,79.7
2023-01-08T11:13:13.250Z,79.7
2023-01-08T11:14:13.257Z,79.8
2023-01-08T11:15:13.269Z,79.9
2023-01-08T11:16:13.459Z,80.0
2023-01-08T11:17:13.312Z,79.9
2023-01-08T11:18:13.310Z,80.0
2023-01-08T11:19:13.296Z,79.9
2023-01-08T11:20:13.308Z,80.1
2023-01-08T11:21:13.316Z,80.2
2023-01-08T11:22:13.369Z,80.2
2023-01-08T11:23:13.339Z,80.3
2023-01-08T11:24:13.354Z,80.2
2023-01-08T11:25:14.378Z,80.3
2023-01-08T11:26:13.372Z,80.4
2023-01-08T11:27:13.442Z,80.5
2023-01-08T11:28:13.377Z,80.7
2023-01-08T11:29:13.394Z,80.7
2023-01-08T11:30:13.400Z,80.9
2023-01-08T11:31:13.639Z,80.8
2023-01-08T11:32:13.418Z,81.0
2023-01-08T11:33:13.406Z,81.1
2023-01-08T11:34:13.432Z,81.2
2023-01-08T11:35:13.430Z,81.1
2023-01-08T11:36:15.168Z,81.2
2023-01-08T11:37:13.438Z,81.2
2023-01-08T11:38:13.472Z,81.1
2023-01-08T11:39:13.465Z,81.0
2023-01-08T11:40:13.478Z,81.0
2023-01-08T11:41:13.504Z,81.1
2023-01-08T11:42:13.497Z,81.2
2023-01-08T11:43:13.503Z,81.3
2023-01-08T11:44:13.538Z,81.1
2023-01-08T11:45:13.516Z,80.8
2023-01-08T11:46:13.550Z,80.7
2023-01-08T11:47:13.557Z,80.4
2023-01-08T11:48:14.793Z,80.5
2023-01-08T11:49:13.565Z,80.6
2023-01-08T11:50:13.601Z,80.5
2023-01-08T11:51:13.555Z,80.3
2023-01-08T11:52:13.569Z,80.3
2023-01-08T11:53:13.637Z,80.1
2023-01-08T11:54:14.590Z,80.0
2023-01-08T11:55:13.592Z,80.3
2023-01-08T11:56:13.603Z,80.3
2023-01-08T11:57:13.674Z,80.3
2023-01-08T11:58:13.620Z,80.6
2023-01-08T11:59:13.645Z,80.7
2023-01-08T12:00:14.638Z,80.9
2023-01-08T12:01:13.850Z,81.1
2023-01-08T12:02:13.783Z,81.3
2023-01-08T12:03:13.803Z,81.6
2023-01-08T12:04:13.706Z,82.0
2023-01-08T12:05:13.684Z,82.3
2023-01-08T12:06:13.703Z,82.4
2023-01-08T12:07:13.703Z,82.7
2023-01-08T12:08:13.728Z,82.9
2023-01-08T12:09:13.721Z,83.0
2023-01-08T12:10:13.752Z,83.2
2023-01-08T12:11:13.746Z,83.4
2023-01-08T12:12:15.285Z,83.5
2023-01-08T12:13:13.758Z,83.6
2023-01-08T12:14:13.764Z,83.7
2023-01-08T12:15:13.813Z,83.8
2023-01-08T12:16:13.937Z,83.9
2023-01-08T12:17:13.823Z,84.0
2023-01-08T12:18:13.820Z,84.0
2023-01-08T12:19:13.836Z,83.9
2023-01-08T12:20:13.843Z,83.9
2023-01-08T12:21:13.837Z,83.9
2023-01-08T12:22:13.844Z,83.9
2023-01-08T12:23:13.861Z,83.9
2023-01-08T12:24:13.880Z,83.9
2023-01-08T12:25:13.893Z,83.9
2023-01-08T12:26:13.885Z,83.8
2023-01-08T12:27:13.885Z,83.8
2023-01-08T12:28:13.908Z,83.8
2023-01-08T12:29:13.940Z,83.9
2023-01-08T12:30:13.933Z,83.8
2023-01-08T12:31:14.101Z,83.8
2023-01-08T12:32:14.199Z,83.8
2023-01-08T12:33:13.939Z,83.8
2023-01-08T12:34:13.946Z,83.8
2023-01-08T12:35:13.950Z,83.8
2023-01-08T12:36:13.958Z,83.8
2023-01-08T12:37:13.985Z,83.8
2023-01-08T12:38:14.010Z,83.7
2023-01-08T12:39:13.982Z,83.7
2023-01-08T12:40:14.052Z,83.1
2023-01-08T12:41:14.032Z,82.9
2023-01-08T12:42:14.028Z,82.6
2023-01-08T12:43:14.053Z,82.3
2023-01-08T12:44:14.035Z,82.0
2023-01-08T12:45:14.052Z,81.8
2023-01-08T12:46:14.215Z,81.7
2023-01-08T12:47:14.074Z,81.8
2023-01-08T12:48:14.088Z,81.8
2023-01-08T12:49:14.093Z,81.7
2023-01-08T12:50:14.100Z,81.7
2023-01-08T12:51:14.084Z,81.4
2023-01-08T12:52:14.105Z,81.3
2023-01-08T12:53:14.126Z,81.2
2023-01-08T12:54:14.121Z,81.2
2023-01-08T12:55:14.131Z,81.2
2023-01-08T12:56:14.140Z,81.4
2023-01-08T12:57:14.157Z,81.4
2023-01-08T12:58:14.153Z,81.6
2023-01-08T12:59:14.181Z,81.9
2023-01-08T13:00:14.249Z,81.7
2023-01-08T13:01:14.508Z,81.7
2023-01-08T13:02:14.577Z,81.5
2023-01-08T13:03:14.191Z,81.5
2023-01-08T13:04:14.212Z,81.5
2023-01-08T13:05:14.223Z,81.4
2023-01-08T13:06:14.231Z,81.2
2023-01-08T13:07:14.220Z,81.1
2023-01-08T13:08:14.229Z,80.9
2023-01-08T13:09:14.245Z,80.7
2023-01-08T13:10:14.263Z,80.5
2023-01-08T13:11:14.265Z,80.2
2023-01-08T13:12:14.287Z,80.0
2023-01-08T13:13:14.270Z,79.7
2023-01-08T13:14:14.276Z,79.4
2023-01-08T13:15:14.300Z,79.1
2023-01-08T13:16:14.694Z,78.7
2023-01-08T13:17:14.309Z,78.7
2023-01-08T13:18:14.323Z,78.4
2023-01-08T13:19:14.328Z,78.1
2023-01-08T13:20:14.548Z,77.9
2023-01-08T13:21:14.336Z,77.5
2023-01-08T13:22:14.356Z,77.4
2023-01-08T13:23:14.395Z,77.3
2023-01-08T13:24:14.406Z,77.1
2023-01-08T13:25:14.376Z,77.0
2023-01-08T13:26:14.392Z,77.2
2023-01-08T13:27:14.426Z,77.5
2023-01-08T13:28:14.430Z,77.8
2023-01-08T13:29:14.421Z,78.0
2023-01-08T13:30:14.617Z,78.4
2023-01-08T13:31:14.730Z,78.6
2023-01-08T13:32:14.450Z,78.8
2023-01-08T13:33:14.457Z,78.9
2023-01-08T13:34:14.456Z,79.0
2023-01-08T13:35:14.482Z,79.3